Latest Weather Observations for Hobart

IDT60801

Issued at 1:35 pm EST Thursday 18 September 2014 (issued every 30 minutes, with the page automatically refreshed every 10 minutes)

About weather observations | Map of weather stations | Latest weather observations for TAS | Other Formats
Station Details ID: 094029 Name: HOBART (ELLERSLIE ROAD) Lat: -42.89 Lon: 147.33 Height: 50.5 m
Data from the previous 72 hours. | See also: Recent months at Hobart
Date/Time
EST
Temp
°C
App
Temp
°C
Dew
Point
Rel
Hum
%
Delta-T
°C
Wind Press
QNH
hPa
Press
MSL
hPa
Rain
since 9 am
mm
Dir
 
Spd
km/h
Gust
km/h
Spd
kts
Gust
kts
18/01:30pm 11.0 7.2 4.1 62 3.1 SSW 13 20 7 11 1013.8 1013.8 0.2
18/01:00pm 12.0 5.4 -0.6 41 5.1 WSW 24 39 13 21 1013.7 1013.7 0.2
18/12:42pm 12.3 4.0 -1.9 37 5.6 W 32 54 17 29 1013.6 1013.6 0.2
18/12:30pm 12.3 6.3 -1.5 38 5.5 SW 20 33 11 18 1013.9 1013.9 0.2
18/12:00pm 13.2 7.4 -0.4 39 5.6 SW 20 30 11 16 1014.1 1014.1 0.2
18/11:30am 12.1 6.0 0.6 45 4.8 SW 22 39 12 21 1014.8 1014.8 0.2
18/11:23am 11.0 3.3 0.2 47 4.4 SW 30 48 16 26 1015.0 1015.0 0.2
18/11:16am 11.8 3.6 0.1 44 4.8 SW 33 48 18 26 1014.9 1014.9 0.2
18/11:00am 12.6 6.6 1.0 45 4.9 SSW 22 30 12 16 1015.1 1015.1 0.0
18/10:33am 11.5 4.1 -0.7 43 4.9 WSW 28 48 15 26 1015.2 1015.2 0.0
18/10:30am 11.5 4.5 -0.3 44 4.8 WSW 26 48 14 26 1015.2 1015.2 0.0
18/10:22am 11.5 3.1 -0.7 43 4.9 WSW 33 52 18 28 1015.3 1015.3 0.0
18/10:16am 11.4 1.2 -0.1 45 4.7 SW 43 52 23 28 1015.3 1015.3 0.0
18/10:00am 11.5 5.8 0.7 47 4.5 WSW 20 30 11 16 1015.5 1015.5 0.0
18/09:30am 10.4 4.3 0.7 51 4.0 W 22 33 12 18 1015.7 1015.7 0.0
18/09:00am 9.9 4.3 1.5 56 3.5 SW 20 32 11 17 1015.6 1015.6 1.2
18/08:30am 9.1 5.9 3.3 67 2.5 SSE 9 13 5 7 1015.5 1015.5 1.2
18/08:00am 7.5 2.9 3.5 76 1.7 SSW 17 24 9 13 1015.6 1015.6 1.2
18/07:30am 7.7 2.3 2.7 70 2.1 SSW 20 30 11 16 1015.2 1015.2 1.2
18/07:00am 7.8 4.4 2.0 67 2.4 SSW 9 15 5 8 1014.6 1014.6 1.2
18/06:30am 7.5 2.9 1.3 65 2.5 SW 15 26 8 14 1014.1 1014.1 1.2
18/06:00am 7.0 3.9 1.6 68 2.2 S 7 13 4 7 1013.5 1013.5 1.2
18/05:30am 7.6 4.0 0.9 62 2.7 SSW 9 17 5 9 1013.1 1013.1 1.2
18/05:00am 7.3 3.0 1.1 65 2.5 W 13 19 7 10 1012.8 1012.8 1.2
18/04:30am 7.4 2.4 1.2 65 2.5 WSW 17 24 9 13 1012.5 1012.5 1.2
18/04:00am 7.4 3.5 1.2 65 2.5 W 11 22 6 12 1012.4 1012.4 1.2
18/03:30am 7.3 2.0 1.9 68 2.2 WSW 19 26 10 14 1012.0 1012.0 1.2
18/03:00am 7.4 0.8 1.8 67 2.3 SW 26 50 14 27 1011.7 1011.7 1.2
18/02:59am 7.5 0.4 1.6 66 2.4 SW 28 50 15 27 1011.7 1011.7 1.2
18/02:30am 7.8 2.3 0.8 61 2.8 SW 19 28 10 15 1011.3 1011.3 1.2
18/02:03am 7.8 0.7 1.1 62 2.7 SW 28 48 15 26 1010.9 1010.9 1.2
18/02:00am 7.9 0.8 1.3 63 2.7 SW 28 43 15 23 1011.0 1011.0 1.2
18/01:30am 7.5 2.0 1.9 67 2.3 SW 20 39 11 21 1010.9 1010.9 1.2
18/01:00am 7.3 1.4 2.0 69 2.2 SW 22 37 12 20 1010.4 1010.4 1.2
18/12:42am 7.3 0.3 2.0 69 2.2 WSW 28 54 15 29 1010.1 1010.2 1.2
18/12:30am 7.3 0.7 2.2 70 2.1 WSW 26 41 14 22 1010.0 1010.1 0.8
18/12:00am 7.0 3.3 2.1 71 2.0 NW 11 19 6 10 1009.8 1009.9 0.6
 
Date/Time
EST
Temp
°C
App
Temp
°C
Dew
Point
Rel
Hum
%
Delta-T
°C
Wind Press
QNH
hPa
Press
MSL
hPa
Rain
since 9 am
mm
Dir
 
Spd
km/h
Gust
km/h
Spd
kts
Gust
kts
17/11:30pm 7.3 2.4 2.2 70 2.1 WSW 17 32 9 17 1009.4 1009.5 0.6
17/11:00pm 7.5 2.4 0.8 62 2.7 W 17 26 9 14 1009.0 1009.1 0.4
17/10:30pm 7.7 3.3 0.1 58 3.0 SW 13 24 7 13 1008.5 1008.6 0.4
17/10:00pm 7.1 3.7 -0.7 57 3.0 NNW 7 20 4 11 1008.2 1008.3 0.4
17/09:30pm 6.8 0.5 -0.8 58 2.9 NNW 22 32 12 17 1007.8 1007.9 0.4
17/09:00pm 6.3 1.4 -0.8 60 2.7 NW 15 20 8 11 1007.8 1007.9 0.4
17/08:30pm 7.3 3.3 -2.4 50 3.6 NW 9 17 5 9 1007.2 1007.3 0.4
17/08:00pm 7.3 3.9 -1.7 53 3.4 NNW 6 15 3 8 1006.8 1006.9 0.4
17/07:30pm 7.4 2.4 -1.2 54 3.3 W 15 24 8 13 1006.8 1006.9 0.4
17/07:00pm 7.2 3.4 -0.9 56 3.1 W 9 13 5 7 1006.7 1006.8 0.4
17/06:30pm 7.6 3.9 -0.3 57 3.1 WNW 9 17 5 9 1006.4 1006.5 0.4
17/06:00pm 8.0 3.9 -0.4 55 3.3 W 11 19 6 10 1006.1 1006.2 0.4
17/05:30pm 8.2 5.1 0.2 57 3.2 NNW 6 13 3 7 1005.5 1005.6 0.4
17/05:00pm 8.9 4.8 -0.1 53 3.6 WSW 11 26 6 14 1004.9 1005.0 0.4
17/04:30pm 8.9 4.2 1.1 58 3.2 WSW 15 28 8 15 1004.3 1004.4 0.4
17/04:00pm 8.6 1.3 2.5 65 2.6 WSW 30 44 16 24 1004.4 1004.5 0.4
17/03:42pm 8.0 0.9 3.6 74 1.9 SW 30 48 16 26 1003.8 1003.9 0.4
17/03:38pm 8.8 0.6 2.7 65 2.6 SW 35 48 19 26 1003.8 1003.9 0.2
17/03:30pm 9.9 5.9 0.3 51 3.9 SW 11 24 6 13 1003.4 1003.5 0.2
17/03:00pm 9.9 4.2 0.3 51 3.9 WSW 20 39 11 21 1002.9 1003.0 0.2
17/02:30pm 9.9 4.3 1.0 54 3.7 SW 20 44 11 24 1002.9 1003.0 0.2
17/02:00pm 9.2 3.5 0.6 55 3.5 WSW 20 39 11 21 1002.8 1002.9 0.2
17/01:30pm 9.2 3.5 0.3 53 3.6 WSW 20 39 11 21 1002.7 1002.8 0.2
17/01:00pm 8.7 2.7 0.9 58 3.2 SSW 22 44 12 24 1002.6 1002.7 0.2
17/12:51pm 8.5 0.8 0.0 55 3.4 SW 30 48 16 26 1002.7 1002.8 0.2
17/12:49pm 8.6 0.0 0.1 55 3.4 SW 35 48 19 26 1002.7 1002.8 0.2
17/12:30pm 8.9 5.7 0.8 57 3.3 SSE 7 20 4 11 1003.1 1003.2 0.2
17/12:00pm 8.1 1.1 2.1 66 2.5 SW 28 50 15 27 1002.7 1002.8 0.2
17/11:32am 8.7 2.2 4.9 77 1.7 SSW 28 54 15 29 1003.1 1003.2 0.0
17/11:30am 9.0 3.3 4.8 75 1.9 SSW 24 35 13 19 1003.1 1003.2 0.0
17/11:00am 9.8 7.5 4.7 70 2.3 NE 6 15 3 8 1003.0 1003.1 0.0
17/10:30am 10.9 5.6 5.0 67 2.7 NNW 22 32 12 17 1002.8 1002.9 0.0
17/10:00am 12.8 8.2 3.5 53 4.2 NW 17 26 9 14 1002.7 1002.8 0.0
17/09:30am 12.9 7.4 3.9 54 4.1 NW 22 32 12 17 1003.1 1003.2 0.0
17/09:00am 12.2 9.2 4.0 57 3.7 NNE 9 19 5 10 1003.5 1003.6 0.0
17/08:30am 9.7 7.2 4.6 70 2.3 NNE 7 11 4 6 1003.7 1003.8 0.0
17/08:00am 9.8 6.4 3.9 66 2.6 NNW 11 17 6 9 1003.9 1004.0 0.0
17/07:30am 8.9 3.9 3.6 69 2.3 NNW 19 26 10 14 1003.9 1004.0 0.0
17/07:00am 8.7 3.5 3.6 70 2.2 NW 20 28 11 15 1004.2 1004.3 0.0
17/06:30am 7.9 2.9 4.5 79 1.5 NNW 20 28 11 15 1004.2 1004.3 0.0
17/06:00am 8.0 3.5 4.4 78 1.6 NNW 17 24 9 13 1004.6 1004.7 0.0
17/05:30am 9.1 3.1 3.6 68 2.4 NNW 24 32 13 17 1004.6 1004.7 0.0
17/05:00am 7.9 4.2 4.5 79 1.5 WNW 13 19 7 10 1005.0 1005.1 0.0
17/04:30am 8.4 5.1 4.6 77 1.7 NW 11 15 6 8 1005.3 1005.4 0.0
17/04:00am 8.2 5.6 4.3 76 1.7 WSW 7 19 4 10 1005.6 1005.7 0.0
17/03:30am 7.9 3.0 4.2 77 1.6 NW 19 24 10 13 1005.8 1005.9 0.0
17/03:00am 8.3 3.2 3.9 74 1.9 NW 20 28 11 15 1006.1 1006.2 0.0
17/02:30am 7.8 4.8 4.1 77 1.6 NW 9 24 5 13 1006.5 1006.6 0.0
17/02:00am 8.0 6.0 4.6 79 1.5 WNW 4 13 2 7 1006.8 1006.9 0.0
17/01:30am 8.4 4.6 4.1 74 1.9 NW 13 17 7 9 1007.2 1007.3 0.0
17/01:00am 8.4 6.4 4.6 77 1.7 W 4 7 2 4 1007.5 1007.6 0.0
17/12:30am 7.7 5.2 4.5 80 1.4 W 7 11 4 6 1007.5 1007.6 0.0
17/12:00am 7.8 5.2 4.4 79 1.5 NNE 7 11 4 6 1007.5 1007.6 0.0
 
Date/Time
EST
Temp
°C
App
Temp
°C
Dew
Point
Rel
Hum
%
Delta-T
°C
Wind Press
QNH
hPa
Press
MSL
hPa
Rain
since 9 am
mm
Dir
 
Spd
km/h
Gust
km/h
Spd
kts
Gust
kts
16/11:30pm 7.9 5.4 4.5 79 1.5 N 7 9 4 5 1007.8 1007.9 0.0
16/11:00pm 7.9 5.5 4.5 79 1.5 W 6 9 3 5 1008.0 1008.1 0.0
16/10:30pm 7.9 5.4 4.7 80 1.4 WSW 7 11 4 6 1008.2 1008.3 0.0
16/10:00pm 8.4 6.0 5.1 80 1.5 NW 7 9 4 5 1008.5 1008.6 0.0
16/09:30pm 8.7 6.4 4.9 77 1.7 NNW 6 9 3 5 1008.5 1008.6 0.0
16/09:00pm 9.6 6.8 5.2 74 2.0 WSW 9 13 5 7 1008.7 1008.8 0.0
16/08:30pm 8.8 5.6 5.0 77 1.7 W 11 15 6 8 1008.7 1008.8 0.0
16/08:00pm 9.2 6.0 5.2 76 1.8 WSW 11 13 6 7 1008.7 1008.8 0.0
16/07:30pm 9.6 6.0 5.2 74 2.0 WSW 13 15 7 8 1008.6 1008.7 0.0
16/07:00pm 10.2 7.2 5.9 74 2.0 WSW 11 15 6 8 1008.7 1008.8 0.0
16/06:30pm 11.4 8.7 5.8 68 2.6 WSW 9 13 5 7 1008.6 1008.7 0.0
16/06:00pm 11.9 9.2 5.7 66 2.9 SSW 9 13 5 7 1008.8 1008.9 0.0
16/05:30pm 12.6 9.9 5.6 62 3.3 SSW 9 13 5 7 1008.6 1008.7 0.0
16/05:00pm 12.9 10.0 4.9 58 3.7 S 9 13 5 7 1008.5 1008.6 0.0
16/04:30pm 12.9 9.8 5.4 60 3.5 SSE 11 15 6 8 1008.6 1008.7 0.0
16/04:00pm 12.8 9.4 5.8 62 3.3 SE 13 19 7 10 1008.6 1008.7 0.0
16/03:30pm 13.1 9.1 4.7 56 3.9 SE 15 17 8 9 1008.7 1008.8 0.0
16/03:00pm 13.1 9.4 4.7 56 3.9 SE 13 20 7 11 1008.7 1008.8 0.0
16/02:30pm 13.2 9.1 4.2 54 4.1 SE 15 20 8 11 1008.8 1008.9 0.0
16/02:00pm 13.3 8.4 4.1 53 4.2 ESE 19 22 10 12 1009.0 1009.1 0.0
16/01:30pm 13.4 8.7 3.4 50 4.5 ESE 17 20 9 11 1009.2 1009.3 0.0
16/01:00pm 15.4 11.4 2.8 42 5.7 N 13 19 7 10 1009.4 1009.5 0.0
16/12:30pm 14.6 11.0 2.8 45 5.3 N 11 19 6 10 1010.0 1010.1 0.0
16/12:00pm 14.5 11.5 1.7 42 5.6 NNW 7 15 4 8 1011.0 1011.0 0.0
16/11:30am 14.0 10.0 2.8 47 5.0 NNW 13 17 7 9 1011.5 1011.5 0.0
16/11:00am 13.5 9.2 3.2 49 4.6 NNW 15 20 8 11 1011.9 1011.9 0.0
16/10:30am 11.4 7.5 3.5 58 3.5 NNW 13 20 7 11 1012.3 1012.3 0.0
16/10:00am 11.3 6.6 3.1 57 3.6 N 17 22 9 12 1012.6 1012.6 0.0
16/09:30am 10.3 5.2 3.2 61 3.1 NNW 19 26 10 14 1012.9 1012.9 0.0
16/09:00am 9.3 4.6 3.3 66 2.6 NNW 17 20 9 11 1013.1 1013.1 0.0
16/08:30am 7.8 2.7 2.8 70 2.1 NNW 19 24 10 13 1013.4 1013.4 0.0
16/08:00am 6.4 1.0 2.5 76 1.6 NNW 20 28 11 15 1013.5 1013.5 0.0
16/07:30am 5.7 0.9 2.5 80 1.3 NNW 17 22 9 12 1013.5 1013.5 0.0
16/07:00am 4.7 -0.5 2.2 84 1.0 NNW 19 24 10 13 1013.6 1013.6 0.0
16/06:30am 3.7 0.3 1.7 87 0.8 WNW 9 13 5 7 1013.5 1013.5 0.0
16/06:00am 3.5 0.1 1.7 88 0.7 NW 9 11 5 6 1013.4 1013.4 0.0
16/05:30am 3.7 0.3 1.9 88 0.7 NW 9 13 5 7 1013.4 1013.4 0.0
16/05:00am 4.2 -1.0 2.2 87 0.8 NW 19 24 10 13 1013.4 1013.4 0.0
16/04:30am 4.1 1.1 2.1 87 0.8 WNW 7 13 4 7 1013.4 1013.4 0.0
16/04:00am 4.9 0.4 2.2 83 1.1 NW 15 20 8 11 1013.3 1013.3 0.0
16/03:30am 4.7 0.5 1.9 82 1.1 WNW 13 17 7 9 1013.4 1013.4 0.0
16/03:00am 4.8 -0.1 2.3 84 1.0 NW 17 22 9 12 1013.5 1013.5 0.0
16/02:30am 5.0 0.2 2.5 84 1.0 NNW 17 20 9 11 1013.9 1013.9 0.0
16/02:00am 5.3 0.8 2.3 81 1.2 NNW 15 17 8 9 1014.2 1014.2 0.0
16/01:30am 5.2 1.2 2.8 84 1.0 NNW 13 17 7 9 1014.6 1014.6 0.0
16/01:00am 4.8 1.8 2.3 84 1.0 NNW 7 11 4 6 1015.1 1015.1 0.0
16/12:30am 5.3 3.7 2.3 81 1.2 CALM 0 0 0 0 1015.3 1015.3 0.0
16/12:00am 5.7 4.1 2.5 80 1.3 CALM 0 0 0 0 1015.5 1015.5 0.0
 
Date/Time
EST
Temp
°C
App
Temp
°C
Dew
Point
Rel
Hum
%
Delta-T
°C
Wind Press
QNH
hPa
Press
MSL
hPa
Rain
since 9 am
mm
Dir
 
Spd
km/h
Gust
km/h
Spd
kts
Gust
kts
15/11:30pm 6.0 4.1 2.6 79 1.4 N 2 6 1 3 1015.8 1015.8 0.0
15/11:00pm 5.7 2.9 2.3 79 1.4 N 6 7 3 4 1016.1 1016.1 0.0
15/10:30pm 5.8 3.1 2.4 79 1.4 W 6 6 3 3 1016.4 1016.4 0.0
15/10:00pm 5.8 3.1 2.4 79 1.4 W 6 7 3 4 1016.5 1016.5 0.0
15/09:30pm 5.9 3.0 2.5 79 1.4 W 7 9 4 5 1016.6 1016.6 0.0
15/09:00pm 6.4 2.7 2.5 76 1.6 W 11 13 6 7 1016.6 1016.6 0.0
15/08:30pm 6.7 3.0 2.6 75 1.7 W 11 15 6 8 1016.9 1016.9 0.0
15/08:00pm 7.0 3.0 2.7 74 1.8 WSW 13 17 7 9 1016.9 1016.9 0.0
15/07:30pm 7.8 4.2 2.8 70 2.1 WSW 11 13 6 7 1017.0 1017.0 0.0
15/07:00pm 8.5 5.6 2.8 67 2.4 WSW 7 11 4 6 1016.9 1016.9 0.0
15/06:30pm 9.0 6.1 2.6 64 2.7 SSW 7 11 4 6 1016.6 1016.6 0.0
15/06:00pm 9.7 5.1 1.8 58 3.3 S 15 20 8 11 1016.6 1016.6 0.0
15/05:30pm 10.2 6.0 1.6 55 3.6 SE 13 19 7 10 1016.6 1016.6 0.0
15/05:00pm 10.4 5.9 2.2 57 3.5 SE 15 22 8 12 1016.5 1016.5 0.0
15/04:30pm 10.4 5.2 2.2 57 3.5 SSE 19 24 10 13 1016.5 1016.5 0.0
15/04:00pm 11.0 5.6 1.2 51 4.1 S 19 24 10 13 1016.3 1016.3 0.0
15/03:30pm 11.1 6.0 1.0 50 4.2 SE 17 22 9 12 1016.3 1016.3 0.0
15/03:00pm 11.6 6.1 0.5 46 4.6 SE 19 24 10 13 1016.6 1016.6 0.0
15/02:30pm 11.5 8.4 11.5 100 0.0 SE 19 24 10 13 1016.8 1016.8 0.0
15/02:00pm 11.6 8.4 11.4 99 0.1 E 19 24 10 13 1016.9 1016.9 0.0

Other Formats:

Comma delimited format used in spreadsheet applications
http://www.bom.gov.au/fwo/IDT60801/IDT60801.94970.axf

JavaScript Object Notation format (JSON) in row-major order
http://www.bom.gov.au/fwo/IDT60801/IDT60801.94970.json